createdAt,value
2023-04-15T00:00:13.653Z,74.81
2023-04-15T00:05:36.607Z,74.89
2023-04-15T00:10:39.525Z,74.96
2023-04-15T00:15:43.416Z,74.96
2023-04-15T00:20:46.357Z,74.97
2023-04-15T00:25:49.234Z,75.07
2023-04-15T00:30:52.206Z,75.10
2023-04-15T00:35:55.053Z,75.11
2023-04-15T00:40:58.079Z,75.06
2023-04-15T00:46:04.092Z,75.10
2023-04-15T00:51:07.828Z,75.14
2023-04-15T00:56:10.742Z,75.18
2023-04-15T01:01:14.171Z,75.32
2023-04-15T01:06:20.719Z,75.39
2023-04-15T01:11:24.632Z,75.47
2023-04-15T01:16:28.826Z,75.51
2023-04-15T01:21:31.768Z,75.55
2023-04-15T01:26:35.084Z,75.60
2023-04-15T01:31:38.097Z,75.64
2023-04-15T01:36:41.167Z,75.68
2023-04-15T01:41:44.313Z,75.77
2023-04-15T01:46:48.503Z,75.82
2023-04-15T01:51:51.345Z,75.88
2023-04-15T01:56:54.342Z,76.03
2023-04-15T02:01:57.525Z,76.08
2023-04-15T02:07:00.852Z,76.18
2023-04-15T02:12:03.784Z,76.18
2023-04-15T02:17:09.416Z,76.23
2023-04-15T02:22:18.371Z,76.26
2023-04-15T02:27:22.625Z,76.43
2023-04-15T02:32:25.670Z,76.47
2023-04-15T02:37:30.558Z,76.45
2023-04-15T02:42:33.518Z,76.54
2023-04-15T02:47:36.583Z,76.53
2023-04-15T02:52:43.511Z,76.54
2023-04-15T02:57:46.574Z,76.51
2023-04-15T03:02:52.601Z,76.49
2023-04-15T03:07:55.647Z,76.51
2023-04-15T03:12:58.507Z,76.42
2023-04-15T03:18:01.613Z,76.28
2023-04-15T03:23:04.888Z,76.39
2023-04-15T03:28:07.935Z,76.31
2023-04-15T03:33:11.020Z,76.15
2023-04-15T03:38:13.849Z,76.01
2023-04-15T03:43:16.784Z,75.86
2023-04-15T03:48:19.697Z,75.64
2023-04-15T03:53:23.341Z,75.69
2023-04-15T03:58:26.207Z,75.68
2023-04-15T04:03:29.242Z,75.67
2023-04-15T04:08:32.281Z,75.69
2023-04-15T04:13:35.553Z,75.74
2023-04-15T04:18:38.423Z,75.78
2023-04-15T04:23:41.346Z,75.82
2023-04-15T04:28:44.201Z,75.75
2023-04-15T04:33:47.135Z,75.50
2023-04-15T04:38:50.215Z,75.44
2023-04-15T04:43:53.107Z,75.19
2023-04-15T04:48:55.957Z,74.96
2023-04-15T04:53:58.933Z,74.89
2023-04-15T04:59:02.127Z,75.01
2023-04-15T05:04:06.186Z,74.98
2023-04-15T05:09:09.082Z,74.85
2023-04-15T05:14:11.993Z,74.93
2023-04-15T05:19:14.796Z,74.83
2023-04-15T05:24:18.375Z,74.75
2023-04-15T05:29:21.627Z,74.89
2023-04-15T05:34:24.473Z,74.93
2023-04-15T05:39:27.651Z,75.19
2023-04-15T05:44:30.589Z,75.35
2023-04-15T05:49:33.406Z,75.30
2023-04-15T05:54:36.817Z,75.10
2023-04-15T05:59:39.645Z,75.19
2023-04-15T06:04:42.742Z,75.18
2023-04-15T06:09:46.018Z,75.12
2023-04-15T06:14:48.850Z,74.96
2023-04-15T06:19:55.583Z,74.94
2023-04-15T06:24:58.802Z,74.46
2023-04-15T06:30:01.789Z,74.06
2023-04-15T06:35:05.654Z,73.68
2023-04-15T06:40:10.199Z,73.18
2023-04-15T06:45:13.151Z,72.88
2023-04-15T06:50:16.195Z,73.07
2023-04-15T06:55:19.143Z,72.61
2023-04-15T07:00:22.493Z,72.59
2023-04-15T07:05:25.507Z,72.43
2023-04-15T07:10:28.324Z,71.87
2023-04-15T07:15:31.243Z,72.10
2023-04-15T07:20:34.236Z,72.18
2023-04-15T07:25:37.262Z,72.04
2023-04-15T07:30:40.295Z,72.09
2023-04-15T07:35:43.662Z,72.26
2023-04-15T07:40:47.139Z,72.45
2023-04-15T07:45:50.173Z,72.57
2023-04-15T07:50:54.170Z,72.53
2023-04-15T07:55:57.505Z,72.64
2023-04-15T08:01:00.935Z,72.43
2023-04-15T08:06:04.093Z,72.63
2023-04-15T08:11:06.998Z,72.78
2023-04-15T08:16:28.175Z,72.61
2023-04-15T08:21:31.414Z,72.41
2023-04-15T08:26:34.252Z,71.99
2023-04-15T08:31:37.324Z,71.95
2023-04-15T08:36:40.244Z,72.06
2023-04-15T08:41:59.336Z,71.70
2023-04-15T08:47:03.541Z,71.67
2023-04-15T08:52:07.540Z,71.61
2023-04-15T08:57:11.046Z,71.56
2023-04-15T09:02:14.057Z,71.75
2023-04-15T09:07:16.971Z,71.94
2023-04-15T09:12:19.852Z,71.93
2023-04-15T09:17:22.861Z,71.96
2023-04-15T09:22:33.134Z,72.09
2023-04-15T09:27:37.554Z,72.22
2023-04-15T09:32:58.049Z,72.13
2023-04-15T09:38:10.509Z,72.29
2023-04-15T09:43:13.776Z,72.24
2023-04-15T09:48:23.165Z,72.58
2023-04-15T09:53:29.825Z,72.90
2023-04-15T09:58:37.281Z,73.06
2023-04-15T10:03:42.540Z,73.18
2023-04-15T10:08:47.801Z,73.22
2023-04-15T10:13:51.782Z,73.34
2023-04-15T10:18:57.197Z,73.59
2023-04-15T10:24:03.331Z,73.79
2023-04-15T10:29:07.789Z,74.17
2023-04-15T10:34:11.608Z,74.29
2023-04-15T10:39:34.165Z,74.07
2023-04-15T10:44:58.546Z,73.91
2023-04-15T10:50:02.734Z,74.11
2023-04-15T10:55:20.042Z,74.29
2023-04-15T11:00:28.221Z,74.71
2023-04-15T11:05:43.513Z,75.02
2023-04-15T11:10:46.888Z,75.15
2023-04-15T11:15:54.552Z,75.34
2023-04-15T11:21:04.786Z,75.57
2023-04-15T11:26:13.386Z,75.74
2023-04-15T11:31:20.343Z,75.83
2023-04-15T11:36:32.212Z,75.88
2023-04-15T11:41:36.569Z,75.76
2023-04-15T11:46:39.589Z,75.60
2023-04-15T11:51:42.842Z,75.90
2023-04-15T11:56:52.499Z,75.83
2023-04-15T12:01:56.202Z,76.40
2023-04-15T12:07:06.639Z,76.96
2023-04-15T12:12:11.961Z,77.79
2023-04-15T12:17:16.764Z,78.70
2023-04-15T12:22:22.346Z,79.48
2023-04-15T12:27:29.715Z,80.21
2023-04-15T12:32:36.619Z,80.75
2023-04-15T12:37:39.574Z,81.11
2023-04-15T12:42:42.907Z,81.26
2023-04-15T12:47:45.873Z,81.29
2023-04-15T12:52:49.028Z,81.43
2023-04-15T12:57:52.649Z,81.63
2023-04-15T13:02:55.927Z,81.73
2023-04-15T13:07:58.865Z,81.90
2023-04-15T13:13:03.224Z,82.24
2023-04-15T13:18:07.959Z,82.29
2023-04-15T13:23:10.934Z,82.06
2023-04-15T13:28:14.019Z,81.86
2023-04-15T13:33:18.144Z,81.86
2023-04-15T13:38:21.508Z,81.61
2023-04-15T13:43:24.500Z,81.11
2023-04-15T13:48:27.656Z,80.50
2023-04-15T13:53:38.049Z,80.43
2023-04-15T13:58:42.356Z,80.50
2023-04-15T14:03:45.484Z,81.12
2023-04-15T14:08:48.801Z,81.59
2023-04-15T14:13:54.808Z,81.99
2023-04-15T14:18:58.565Z,82.24
2023-04-15T14:24:01.764Z,82.61
2023-04-15T14:29:05.288Z,82.93
2023-04-15T14:34:08.558Z,83.08
2023-04-15T14:39:11.738Z,83.43
2023-04-15T14:44:14.719Z,83.88
2023-04-15T14:49:17.900Z,84.14
2023-04-15T14:54:22.345Z,84.33
2023-04-15T14:59:25.672Z,84.34
2023-04-15T15:04:29.512Z,83.97
2023-04-15T15:09:34.522Z,84.10
2023-04-15T15:14:37.969Z,83.94
2023-04-15T15:19:41.094Z,84.43
2023-04-15T15:24:44.005Z,84.85
2023-04-15T15:29:47.182Z,84.82
2023-04-15T15:34:50.113Z,84.93
2023-04-15T15:39:53.615Z,85.16
2023-04-15T15:44:56.500Z,85.35
2023-04-15T15:50:02.721Z,85.85
2023-04-15T15:55:08.337Z,86.13
2023-04-15T16:00:13.089Z,86.24
2023-04-15T16:05:16.596Z,86.27
2023-04-15T16:10:20.236Z,86.68
2023-04-15T16:15:27.271Z,86.91
2023-04-15T16:20:30.470Z,86.67
2023-04-15T16:25:33.308Z,86.60
2023-04-15T16:30:38.951Z,86.56
2023-04-15T16:35:41.908Z,86.59
2023-04-15T16:40:46.305Z,86.72
2023-04-15T16:45:52.120Z,86.68
2023-04-15T16:50:57.325Z,86.74
2023-04-15T16:56:00.585Z,86.67
2023-04-15T17:01:03.918Z,86.65
2023-04-15T17:06:07.009Z,86.94
2023-04-15T17:11:12.099Z,87.33
2023-04-15T17:16:16.111Z,87.56
2023-04-15T17:21:19.378Z,87.67
2023-04-15T17:26:23.005Z,87.92
2023-04-15T17:31:29.800Z,88.22
2023-04-15T17:36:33.038Z,88.60
2023-04-15T17:41:36.594Z,88.86
2023-04-15T17:46:40.320Z,89.08
2023-04-15T17:51:45.153Z,89.23
2023-04-15T17:56:49.525Z,88.99
2023-04-15T18:01:52.809Z,89.07
2023-04-15T18:06:56.975Z,89.32
2023-04-15T18:12:02.170Z,89.36
2023-04-15T18:17:05.579Z,89.19
2023-04-15T18:22:08.556Z,89.22
2023-04-15T18:27:13.585Z,89.26
2023-04-15T18:32:20.398Z,89.09
2023-04-15T18:37:25.885Z,89.14
2023-04-15T18:42:31.046Z,89.22
2023-04-15T18:47:36.496Z,89.31
2023-04-15T18:52:40.960Z,89.29
2023-04-15T18:57:44.956Z,89.46
2023-04-15T19:02:48.525Z,89.69
2023-04-15T19:07:51.773Z,89.79
2023-04-15T19:12:55.781Z,89.89
2023-04-15T19:17:58.810Z,89.90
2023-04-15T19:23:01.873Z,90.07
2023-04-15T19:28:04.982Z,90.29
2023-04-15T19:33:08.209Z,90.28
2023-04-15T19:38:11.675Z,90.31
2023-04-15T19:43:14.671Z,90.39
2023-04-15T19:48:19.045Z,90.36
2023-04-15T19:53:23.230Z,90.46
2023-04-15T19:58:26.611Z,90.56
2023-04-15T20:03:31.267Z,90.54
2023-04-15T20:08:36.062Z,90.61
2023-04-15T20:13:39.282Z,90.75
2023-04-15T20:18:42.459Z,90.76
2023-04-15T20:23:46.206Z,90.82
2023-04-15T20:28:49.193Z,90.79
2023-04-15T20:33:53.918Z,90.97
2023-04-15T20:38:58.481Z,90.93
2023-04-15T20:44:01.782Z,90.83
2023-04-15T20:49:05.454Z,90.84
2023-04-15T20:54:12.733Z,90.84
2023-04-15T20:59:16.345Z,90.63
2023-04-15T21:04:22.344Z,90.51
2023-04-15T21:09:27.045Z,90.43
2023-04-15T21:14:33.060Z,90.39
2023-04-15T21:19:37.596Z,90.39
2023-04-15T21:24:40.619Z,90.34
2023-04-15T21:29:44.947Z,90.33
2023-04-15T21:34:49.155Z,90.38
2023-04-15T21:39:52.026Z,90.36
2023-04-15T21:44:54.991Z,90.29
2023-04-15T21:49:57.851Z,90.25
2023-04-15T21:55:00.984Z,90.29
2023-04-15T22:00:06.351Z,90.25
2023-04-15T22:05:09.238Z,90.28
2023-04-15T22:10:12.126Z,90.34
2023-04-15T22:15:15.740Z,90.44
2023-04-15T22:20:18.741Z,90.50
2023-04-15T22:25:21.640Z,90.53
2023-04-15T22:30:24.810Z,90.57
2023-04-15T22:35:27.732Z,90.61
2023-04-15T22:40:30.987Z,90.63
2023-04-15T22:45:33.838Z,90.67
2023-04-15T22:50:38.132Z,90.66
2023-04-15T22:55:46.824Z,90.77
2023-04-15T23:00:50.408Z,90.72
2023-04-15T23:05:53.411Z,90.84
2023-04-15T23:10:56.761Z,90.82
2023-04-15T23:15:59.696Z,90.89
2023-04-15T23:21:04.282Z,90.93
2023-04-15T23:26:07.118Z,90.99
2023-04-15T23:31:11.230Z,91.00
2023-04-15T23:36:14.191Z,90.97
2023-04-15T23:41:17.132Z,90.89
2023-04-15T23:46:20.133Z,90.85
2023-04-15T23:51:23.057Z,90.77
2023-04-15T23:56:25.941Z,90.70
